Terminal Aerodrome Forecast
Issued by NWS

Home | Current Version | Previous Version | Text Only | Print | Product List | Glossary On
Versions: 1 2 3 4 5 6 7 8 9 10 11 12 13 14 15 16 17 18 19
672
FTUS42 TJSJ 031127
TAFJSJ
TAF
TJSJ 031127Z 0312/0412 VRB05KT P6SM VCSH FEW020 SCT040 SCT090
     FM031500 08012KT P6SM VCSH FEW020 SCT030 BKN090
     FM032300 11005KT P6SM VCSH FEW018 SCT030 BKN060=

USA.gov is the U.S. government's official web portal to all federal, state and local government web resources and services.